Time;durP1;ratioP1;P1;durP2;ratioP2;P2;SDS_P1;SDS_P2;PMS_P1;PMS_P2;Temp;Humidity;BMP_temperature;BMP_pressure;BME280_temperature;BME280_humidity;BME280_pressure;Samples;Min_cycle;Max_cycle;Signal;HPM_P1;HPM_P2
2024/01/16 00:00:41;;;;;;;6.83;4.90;;;;;;;-1.82;100.00;150908.09;4959582;28;20517;-82
2024/01/16 00:03:07;;;;;;;8.87;4.73;;;;;;;-1.83;100.00;150906.81;4978384;28;20528;-82
2024/01/16 00:05:34;;;;;;;8.07;4.60;;;;;;;-1.83;100.00;150905.56;4962605;28;20484;-83
2024/01/16 00:08:00;;;;;;;7.00;4.90;;;;;;;-1.85;100.00;150901.69;4956407;28;21017;-81
2024/01/16 00:10:27;;;;;;;8.07;5.07;;;;;;;-1.81;100.00;150909.38;4947609;28;20512;-90
2024/01/16 00:12:55;;;;;;;6.10;5.20;;;;;;;-1.80;100.00;150911.97;4973634;28;20469;-90
2024/01/16 00:15:22;;;;;;;6.90;3.70;;;;;;;-1.79;100.00;150914.50;4962676;28;20437;-88
2024/01/16 00:17:49;;;;;;;7.17;5.27;;;;;;;-1.80;100.00;150913.22;4977303;28;20482;-90
2024/01/16 00:20:16;;;;;;;8.80;4.50;;;;;;;-1.82;100.00;150908.09;4957805;28;20544;-90
2024/01/16 00:22:42;;;;;;;7.87;4.70;;;;;;;-1.83;100.00;150906.81;4971030;28;20593;-90
2024/01/16 00:25:09;;;;;;;6.90;5.33;;;;;;;-1.84;100.00;150902.97;4973775;28;20532;-89
2024/01/16 00:27:36;;;;;;;6.73;3.97;;;;;;;-1.88;100.00;150892.75;4972422;28;20443;-89
2024/01/16 00:30:06;;;;;;;5.50;3.70;;;;;;;-1.92;100.00;150883.78;4973147;28;20524;-88
2024/01/16 00:32:33;;;;;;;6.40;4.53;;;;;;;-1.95;100.00;150874.78;4982473;28;20493;-82
2024/01/16 00:34:59;;;;;;;8.30;5.07;;;;;;;-1.95;100.00;150876.09;4964555;28;20442;-82
2024/01/16 00:37:26;;;;;;;6.50;4.30;;;;;;;-1.96;100.00;150872.25;4981738;28;20453;-82
2024/01/16 00:39:52;;;;;;;6.23;4.30;;;;;;;-1.97;100.00;150870.97;4971323;28;20453;-81
2024/01/16 00:42:19;;;;;;;5.43;4.07;;;;;;;-2.01;100.00;150859.41;4971581;28;20454;-82
2024/01/16 00:44:45;;;;;;;6.03;4.57;;;;;;;-2.06;100.00;150846.59;4969193;28;20473;-82
2024/01/16 00:47:13;;;;;;;6.50;4.90;;;;;;;-2.06;100.00;150847.91;4971881;28;20454;-82
2024/01/16 00:49:40;;;;;;;6.23;4.30;;;;;;;-2.08;100.00;150842.78;4973675;28;20456;-82
2024/01/16 00:52:07;;;;;;;6.90;4.73;;;;;;;-2.09;100.00;150838.97;4964878;28;20465;-83
2024/01/16 00:54:33;;;;;;;6.27;4.10;;;;;;;-2.09;100.00;150838.97;4967825;28;20547;-83
2024/01/16 00:57:00;;;;;;;8.50;4.50;;;;;;;-2.06;100.00;150846.59;4945804;28;20449;-82
2024/01/16 00:59:27;;;;;;;5.40;3.63;;;;;;;-2.07;100.00;150844.06;4968860;28;20480;-82
2024/01/16 01:01:53;;;;;;;5.53;3.93;;;;;;;-2.09;100.00;150838.97;4954414;28;20461;-82
2024/01/16 01:04:21;;;;;;;6.30;4.00;;;;;;;-2.10;100.00;150837.69;4968753;28;20846;-82
2024/01/16 01:06:48;;;;;;;5.70;3.67;;;;;;;-2.11;100.00;150833.81;4986684;28;20457;-82
2024/01/16 01:09:14;;;;;;;6.90;4.30;;;;;;;-2.10;100.00;150837.69;4964395;28;21083;-82
2024/01/16 01:11:41;;;;;;;7.33;4.80;;;;;;;-2.06;100.00;150846.59;4979209;28;20462;-83
2024/01/16 01:14:07;;;;;;;6.50;3.70;;;;;;;-2.04;100.00;150853.00;4957344;28;20457;-83
2024/01/16 01:16:34;;;;;;;4.63;3.40;;;;;;;-2.01;100.00;150859.41;4963703;28;21020;-82
2024/01/16 01:19:00;;;;;;;8.40;4.97;;;;;;;-2.01;100.00;150860.69;4957918;28;20462;-82
2024/01/16 01:21:28;;;;;;;8.27;4.27;;;;;;;-2.01;100.00;150859.41;4938334;28;20459;-82
2024/01/16 01:23:55;;;;;;;7.73;5.10;;;;;;;-2.00;100.00;150862.00;4979027;28;20458;-83
2024/01/16 01:26:21;;;;;;;6.80;4.10;;;;;;;-1.99;100.00;150864.56;4950171;28;20467;-83
2024/01/16 01:28:48;;;;;;;5.90;3.87;;;;;;;-2.00;100.00;150863.28;4970963;28;20463;-82
2024/01/16 01:31:15;;;;;;;6.27;3.57;;;;;;;-2.00;100.00;150862.00;4947674;29;20476;-82
2024/01/16 01:33:42;;;;;;;5.03;3.47;;;;;;;-1.99;100.00;150864.56;4972444;28;20443;-82
2024/01/16 01:36:08;;;;;;;5.33;4.30;;;;;;;-1.99;100.00;150864.56;4967889;28;20999;-82
2024/01/16 01:38:36;;;;;;;6.10;4.50;;;;;;;-1.99;100.00;150864.56;4975875;28;20847;-83
2024/01/16 01:41:03;;;;;;;6.53;3.60;;;;;;;-1.98;100.00;150867.09;4966593;28;20461;-82
2024/01/16 01:43:30;;;;;;;7.47;4.13;;;;;;;-1.98;100.00;150868.38;4983752;28;20442;-82
2024/01/16 01:46:07;;;;;;;5.17;3.67;;;;;;;-2.00;100.00;150863.28;4967157;28;20478;-83
2024/01/16 01:48:33;;;;;;;6.73;4.20;;;;;;;-1.99;100.00;150864.56;4977562;28;20451;-82
2024/01/16 01:51:00;;;;;;;6.30;4.37;;;;;;;-2.00;100.00;150863.28;4967608;28;20455;-82
2024/01/16 01:53:27;;;;;;;5.83;4.47;;;;;;;-2.01;100.00;150859.41;4964112;28;20510;-82
2024/01/16 01:55:56;;;;;;;6.70;4.33;;;;;;;-2.03;100.00;150854.31;4967724;28;20554;-82
2024/01/16 01:58:23;;;;;;;7.70;4.30;;;;;;;-2.02;100.00;150856.88;4965953;28;20429;-82
2024/01/16 02:00:50;;;;;;;8.03;4.00;;;;;;;-2.00;100.00;150862.00;4974573;28;20447;-82
2024/01/16 02:03:16;;;;;;;5.33;4.00;;;;;;;-2.01;100.00;150859.41;4955412;28;20455;-83
2024/01/16 02:05:43;;;;;;;7.37;4.50;;;;;;;-2.06;100.00;150846.59;4932165;29;20483;-82
2024/01/16 02:08:10;;;;;;;4.43;3.40;;;;;;;-2.08;100.00;150842.78;4957484;28;20453;-82
2024/01/16 02:10:38;;;;;;;6.77;4.30;;;;;;;-2.12;100.00;150831.28;4984112;28;20825;-82
2024/01/16 02:13:06;;;;;;;5.53;4.00;;;;;;;-2.14;100.00;150827.41;4965002;28;20458;-83
2024/01/16 02:15:32;;;;;;;6.03;4.30;;;;;;;-2.17;100.00;150819.72;4968864;28;20449;-83
2024/01/16 02:17:59;;;;;;;4.70;3.33;;;;;;;-2.19;100.00;150814.59;4973643;28;20449;-82
2024/01/16 02:20:26;;;;;;;6.23;4.27;;;;;;;-2.21;100.00;150809.50;4970586;28;20445;-83
2024/01/16 02:22:54;;;;;;;6.07;4.27;;;;;;;-2.23;100.00;150804.38;4967537;28;20462;-82
2024/01/16 02:25:22;;;;;;;7.33;4.10;;;;;;;-2.26;100.00;150795.41;4986288;28;20478;-83
2024/01/16 02:27:49;;;;;;;6.03;3.97;;;;;;;-2.31;100.00;150782.59;4981640;28;20449;-82
2024/01/16 02:30:16;;;;;;;6.40;4.20;;;;;;;-2.32;100.00;150780.03;4972353;28;20453;-83
2024/01/16 02:32:42;;;;;;;5.30;3.70;;;;;;;-2.37;100.00;150768.50;4972657;28;20433;-82
2024/01/16 02:35:09;;;;;;;6.10;4.00;;;;;;;-2.40;100.00;150759.53;4969204;28;20442;-83
2024/01/16 02:37:36;;;;;;;5.23;4.03;;;;;;;-2.44;100.00;150749.31;4981277;28;20509;-82
2024/01/16 02:40:06;;;;;;;5.30;4.00;;;;;;;-2.48;100.00;150741.63;4984757;28;20442;-82
2024/01/16 02:42:33;;;;;;;6.20;4.57;;;;;;;-2.48;100.00;150741.63;4962785;28;20445;-83
2024/01/16 02:45:00;;;;;;;4.67;3.47;;;;;;;-2.50;100.00;150736.50;4960557;28;20480;-83
2024/01/16 02:47:27;;;;;;;4.77;3.20;;;;;;;-2.52;100.00;150731.41;4986298;28;20457;-82
2024/01/16 02:49:53;;;;;;;6.23;3.90;;;;;;;-2.54;100.00;150726.25;4955148;28;20441;-83
2024/01/16 02:52:20;;;;;;;6.53;3.87;;;;;;;-2.59;100.00;150713.44;4985131;28;20477;-83
2024/01/16 02:54:47;;;;;;;4.20;3.37;;;;;;;-2.59;100.00;150713.44;4979430;28;20459;-83
2024/01/16 02:57:13;;;;;;;6.27;3.67;;;;;;;-2.59;100.00;150712.16;4971330;28;20457;-83
2024/01/16 02:59:44;;;;;;;7.90;4.03;;;;;;;-2.57;100.00;150718.56;4975040;28;20466;-82
2024/01/16 03:02:11;;;;;;;3.73;2.80;;;;;;;-2.57;100.00;150718.56;4982216;28;20467;-82
2024/01/16 03:04:37;;;;;;;5.67;4.20;;;;;;;-2.61;100.00;150708.34;4971592;28;20470;-82
2024/01/16 03:07:04;;;;;;;7.17;4.23;;;;;;;-2.62;100.00;150705.75;4981234;28;20820;-82
2024/01/16 03:09:31;;;;;;;6.03;3.83;;;;;;;-2.62;100.00;150705.75;4965522;28;20469;-82
2024/01/16 03:11:58;;;;;;;6.37;4.50;;;;;;;-2.64;100.00;150700.66;4966304;28;20551;-82
2024/01/16 03:14:24;;;;;;;7.50;4.30;;;;;;;-2.67;100.00;150691.69;4978783;28;20450;-82
2024/01/16 03:16:52;;;;;;;8.63;4.10;;;;;;;-2.65;100.00;150698.06;4974297;28;20454;-82
2024/01/16 03:19:19;;;;;;;5.20;3.17;;;;;;;-2.67;100.00;150692.97;4970105;28;20453;-82
2024/01/16 03:21:45;;;;;;;5.40;3.70;;;;;;;-2.71;100.00;150682.75;4968018;28;20453;-82
2024/01/16 03:24:12;;;;;;;6.00;4.00;;;;;;;-2.72;100.00;150680.16;4983536;28;20945;-82
2024/01/16 03:26:39;;;;;;;5.53;4.13;;;;;;;-2.72;100.00;150678.88;4958383;28;20940;-82
2024/01/16 03:29:06;;;;;;;5.50;3.93;;;;;;;-2.73;100.00;150677.63;4968940;28;20441;-82
2024/01/16 03:31:32;;;;;;;8.10;3.87;;;;;;;-2.76;100.00;150668.66;4963137;28;20442;-82
2024/01/16 03:34:01;;;;;;;6.43;4.17;;;;;;;-2.80;100.00;150659.69;4973005;28;20444;-82
2024/01/16 03:36:28;;;;;;;5.13;3.00;;;;;;;-2.82;100.00;150653.28;4950525;28;20461;-82
2024/01/16 03:38:54;;;;;;;5.60;3.90;;;;;;;-2.81;100.00;150657.16;4984307;28;20453;-82
2024/01/16 03:41:21;;;;;;;5.60;4.07;;;;;;;-2.82;100.00;150654.56;4971848;28;20437;-83
2024/01/16 03:43:48;;;;;;;3.77;3.37;;;;;;;-2.85;100.00;150646.91;4976345;28;20497;-82
2024/01/16 03:46:14;;;;;;;5.37;4.03;;;;;;;-2.86;100.00;150644.31;4967399;28;20519;-82
2024/01/16 03:48:41;;;;;;;6.87;4.00;;;;;;;-2.87;100.00;150640.50;4971288;28;20444;-82
2024/01/16 03:51:09;;;;;;;7.40;4.30;;;;;;;-2.89;100.00;150636.69;4970183;28;20456;-82
2024/01/16 03:53:36;;;;;;;6.27;4.37;;;;;;;-2.94;100.00;150622.59;4985240;28;20465;-82
2024/01/16 03:56:02;;;;;;;6.00;4.07;;;;;;;-2.97;100.00;150616.19;4966793;28;20453;-82
2024/01/16 03:58:29;;;;;;;5.63;3.83;;;;;;;-3.00;100.00;150608.50;4978239;28;20474;-82
2024/01/16 04:00:55;;;;;;;5.13;3.97;;;;;;;-3.00;100.00;150608.50;4955544;28;20565;-83
2024/01/16 04:03:21;;;;;;;5.10;3.47;;;;;;;-3.00;100.00;150607.22;4957070;28;20477;-83
2024/01/16 04:05:48;;;;;;;5.77;4.03;;;;;;;-3.02;100.00;150603.41;4981832;28;20231;-82
2024/01/16 04:08:16;;;;;;;5.67;3.73;;;;;;;-3.05;100.00;150595.72;4973778;28;20441;-83
2024/01/16 04:10:43;;;;;;;8.53;3.60;;;;;;;-3.07;100.00;150590.56;4961544;28;20560;-83
2024/01/16 04:13:09;;;;;;;4.53;3.23;;;;;;;-3.13;100.00;150575.25;4971368;28;20977;-83
2024/01/16 04:15:38;;;;;;;5.60;3.57;;;;;;;-3.14;100.00;150572.66;4972030;28;20481;-82
2024/01/16 04:18:05;;;;;;;5.40;3.17;;;;;;;-3.24;100.00;150547.09;4957699;28;20481;-83
2024/01/16 04:20:32;;;;;;;4.43;3.00;;;;;;;-3.25;100.00;150544.50;4959549;28;20546;-83
2024/01/16 04:22:58;;;;;;;5.73;3.00;;;;;;;-3.27;100.00;150539.41;4956905;28;20442;-83
2024/01/16 04:25:26;;;;;;;5.50;3.40;;;;;;;-3.24;100.00;150547.09;4983833;28;20572;-83
2024/01/16 04:27:53;;;;;;;6.60;3.77;;;;;;;-3.24;100.00;150547.09;4973691;28;20453;-83
2024/01/16 04:30:20;;;;;;;5.70;4.27;;;;;;;-3.27;100.00;150539.41;4981707;28;20456;-83
2024/01/16 04:32:46;;;;;;;5.57;3.77;;;;;;;-3.29;100.00;150534.31;4970852;28;20525;-83
2024/01/16 04:35:13;;;;;;;4.50;3.00;;;;;;;-3.33;100.00;150525.31;4976528;28;21038;-82
2024/01/16 04:37:39;;;;;;;5.30;4.20;;;;;;;-3.36;100.00;150516.41;4982745;28;20429;-83
2024/01/16 04:40:07;;;;;;;4.13;3.30;;;;;;;-3.42;100.00;150502.34;4957171;28;20788;-83
2024/01/16 04:42:35;;;;;;;5.27;3.90;;;;;;;-3.39;100.00;150508.72;4974042;28;20458;-83
2024/01/16 04:45:01;;;;;;;5.10;3.80;;;;;;;-3.40;100.00;150506.16;4970246;28;20436;-83
2024/01/16 04:47:28;;;;;;;5.40;3.33;;;;;;;-3.42;100.00;150502.34;4975327;28;20441;-83
2024/01/16 04:49:54;;;;;;;7.80;3.70;;;;;;;-3.39;100.00;150509.97;4968573;28;20462;-83
2024/01/16 04:52:21;;;;;;;5.77;3.70;;;;;;;-3.41;100.00;150503.56;4964896;28;20454;-83
2024/01/16 04:54:47;;;;;;;6.00;3.80;;;;;;;-3.43;100.00;150498.47;4950977;28;20481;-83
2024/01/16 04:57:15;;;;;;;5.77;3.40;;;;;;;-3.42;100.00;150501.03;4979319;28;20452;-83
2024/01/16 05:00:16;;;;;;;4.67;3.40;;;;;;;-3.45;100.00;150494.66;4968759;28;20454;-83
2024/01/16 05:02:43;;;;;;;4.20;2.63;;;;;;;-3.48;100.00;150486.97;4916903;29;20464;-83
2024/01/16 05:05:10;;;;;;;5.33;3.83;;;;;;;-3.49;100.00;150483.09;4908680;29;20536;-83
2024/01/16 05:07:36;;;;;;;4.13;3.20;;;;;;;-3.48;100.00;150485.69;4950346;28;20946;-83
2024/01/16 05:10:03;;;;;;;5.30;3.27;;;;;;;-3.48;100.00;150486.97;4978025;28;20486;-83
2024/01/16 05:12:30;;;;;;;5.17;3.03;;;;;;;-3.46;100.00;150490.78;4971369;28;20448;-83
2024/01/16 05:14:56;;;;;;;4.80;2.50;;;;;;;-3.43;100.00;150498.47;4982111;28;20469;-83
2024/01/16 05:17:24;;;;;;;5.17;3.80;;;;;;;-3.47;100.00;150488.25;4985515;28;20454;-82
2024/01/16 05:19:51;;;;;;;7.67;3.60;;;;;;;-3.54;100.00;150470.31;4970457;28;20458;-82
2024/01/16 05:22:18;;;;;;;5.97;3.30;;;;;;;-3.66;100.00;150439.66;4985498;28;20833;-82
2024/01/16 05:24:45;;;;;;;6.33;3.57;;;;;;;-3.71;100.00;150428.16;4949625;28;20446;-82
2024/01/16 05:27:12;;;;;;;4.30;3.17;;;;;;;-3.73;100.00;150424.28;4987678;28;20484;-82
2024/01/16 05:29:39;;;;;;;4.40;3.30;;;;;;;-3.70;100.00;150431.97;4988172;28;20429;-82
2024/01/16 05:32:06;;;;;;;5.57;3.63;;;;;;;-3.65;100.00;150442.22;4966663;28;20798;-82
2024/01/16 05:34:34;;;;;;;5.40;3.67;;;;;;;-3.67;100.00;150437.06;4970723;28;20961;-82
2024/01/16 05:37:00;;;;;;;5.63;3.03;;;;;;;-3.67;100.00;150438.34;4971503;28;20457;-82
2024/01/16 05:39:27;;;;;;;5.13;3.27;;;;;;;-3.66;100.00;150440.94;4986433;28;20814;-83
2024/01/16 05:41:55;;;;;;;5.27;3.20;;;;;;;-3.67;100.00;150437.06;4969363;28;20452;-82
2024/01/16 05:44:22;;;;;;;5.07;3.40;;;;;;;-3.66;100.00;150439.66;4984246;28;20533;-82
2024/01/16 05:46:49;;;;;;;4.83;3.03;;;;;;;-3.72;100.00;150426.84;4964019;28;20505;-83
2024/01/16 05:49:15;;;;;;;4.43;3.17;;;;;;;-3.74;100.00;150420.47;4970849;28;20412;-82
2024/01/16 05:51:43;;;;;;;4.50;3.63;;;;;;;-3.75;100.00;150419.19;4980734;28;20427;-82
2024/01/16 05:54:10;;;;;;;5.10;3.47;;;;;;;-3.75;100.00;150419.19;4972022;28;20463;-83
2024/01/16 05:56:37;;;;;;;4.60;2.80;;;;;;;-3.82;100.00;150401.28;4990015;28;20449;-82
2024/01/16 05:59:04;;;;;;;3.30;2.67;;;;;;;-3.88;100.00;150385.94;4985763;28;20441;-83
2024/01/16 06:01:30;;;;;;;4.00;3.60;;;;;;;-3.93;100.00;150373.16;4987613;28;20444;-82
2024/01/16 06:03:57;;;;;;;4.60;3.07;;;;;;;-3.90;100.00;150379.53;4975843;28;20437;-82
2024/01/16 06:06:24;;;;;;;5.50;3.03;;;;;;;-3.89;100.00;150383.34;4959436;28;20460;-81
2024/01/16 06:08:53;;;;;;;4.40;2.80;;;;;;;-3.84;100.00;150394.91;4977383;28;20487;-82
2024/01/16 06:11:20;;;;;;;4.77;3.53;;;;;;;-3.82;100.00;150401.28;4960175;28;20980;-83
2024/01/16 06:13:46;;;;;;;4.57;3.00;;;;;;;-3.83;100.00;150398.72;4975386;28;20447;-83
2024/01/16 06:16:18;;;;;;;6.30;3.70;;;;;;;-3.77;100.00;150414.06;4976290;28;21059;-82
2024/01/16 06:18:45;;;;;;;5.37;3.30;;;;;;;-3.74;100.00;150421.75;4959327;28;20485;-81
2024/01/16 06:21:12;;;;;;;4.57;2.90;;;;;;;-3.72;100.00;150425.56;4978139;28;20562;-83
2024/01/16 06:23:39;;;;;;;6.10;3.40;;;;;;;-3.71;100.00;150429.38;4973694;28;20479;-82
2024/01/16 06:26:08;;;;;;;4.67;3.50;;;;;;;-3.67;100.00;150437.06;4975237;28;20487;-82
2024/01/16 06:28:35;;;;;;;5.47;3.50;;;;;;;-3.73;100.00;150424.28;4975011;28;20428;-82
2024/01/16 06:31:01;;;;;;;5.83;3.17;;;;;;;-3.71;100.00;150429.38;4958758;28;20773;-82
2024/01/16 06:33:28;;;;;;;7.03;4.87;;;;;;;-3.71;100.00;150428.16;4978094;28;20453;-83
2024/01/16 06:35:55;;;;;;;5.00;3.80;;;;;;;-3.73;100.00;150424.28;4974201;28;20461;-82
2024/01/16 06:38:22;;;;;;;5.50;4.07;;;;;;;-3.72;100.00;150425.56;4976806;28;20466;-83
2024/01/16 06:40:48;;;;;;;6.80;4.20;;;;;;;-3.71;100.00;150428.16;4977928;28;20876;-83
2024/01/16 06:43:22;;;;;;;5.90;3.67;;;;;;;-3.71;100.00;150429.38;4960670;28;21014;-83
2024/01/16 06:45:49;;;;;;;5.27;3.67;;;;;;;-3.69;100.00;150433.25;4959708;28;20461;-83
2024/01/16 06:48:16;;;;;;;5.90;3.90;;;;;;;-3.68;100.00;150434.53;4957942;28;20469;-83
2024/01/16 06:50:42;;;;;;;4.53;2.97;;;;;;;-3.69;100.00;150433.25;4957196;28;20454;-82
2024/01/16 06:53:09;;;;;;;5.10;4.13;;;;;;;-3.68;100.00;150435.81;4979590;28;20452;-83
2024/01/16 06:55:35;;;;;;;5.30;4.17;;;;;;;-3.69;100.00;150433.25;4978574;28;20468;-83
2024/01/16 06:58:02;;;;;;;4.17;3.50;;;;;;;-3.67;100.00;150437.06;4966313;28;20472;-83
2024/01/16 07:00:31;;;;;;;6.20;3.17;;;;;;;-3.67;100.00;150437.06;4978392;28;20420;-82
2024/01/16 07:02:58;;;;;;;4.30;3.63;;;;;;;-3.66;100.00;150439.66;4967302;28;20562;-82
2024/01/16 07:05:24;;;;;;;5.77;4.80;;;;;;;-3.67;100.00;150437.06;4980219;28;20465;-82
2024/01/16 07:07:51;;;;;;;7.53;4.43;;;;;;;-3.68;100.00;150434.53;4964249;28;20813;-82
2024/01/16 07:10:18;;;;;;;4.93;3.47;;;;;;;-3.67;100.00;150437.06;4964374;28;21023;-82
2024/01/16 07:12:45;;;;;;;4.60;3.77;;;;;;;-3.68;100.00;150434.53;4977936;28;20508;-83
2024/01/16 07:15:12;;;;;;;4.70;3.80;;;;;;;-3.68;100.00;150435.81;4979098;28;20520;-83
2024/01/16 07:17:40;;;;;;;4.03;3.30;;;;;;;-3.67;100.00;150437.06;4963743;28;20528;-83
2024/01/16 07:20:10;;;;;;;4.93;3.97;;;;;;;-3.71;100.00;150429.38;4976406;28;21801;-82
2024/01/16 07:22:39;;;;;;;6.90;4.00;;;;;;;-3.72;100.00;150426.84;4979079;28;20451;-82
2024/01/16 07:25:06;;;;;;;5.87;3.70;;;;;;;-3.73;100.00;150423.00;4944463;28;20868;-82
2024/01/16 07:27:33;;;;;;;3.83;2.90;;;;;;;-3.75;100.00;150419.19;4962884;28;20458;-81
2024/01/16 07:29:59;;;;;;;6.23;3.70;;;;;;;-3.72;100.00;150426.84;4978015;28;20578;-81
2024/01/16 07:32:26;;;;;;;4.17;2.97;;;;;;;-3.71;100.00;150429.38;4979402;28;20480;-81
2024/01/16 07:34:54;;;;;;;3.60;3.17;;;;;;;-3.66;100.00;150439.66;4960708;28;20512;-82
2024/01/16 07:37:20;;;;;;;3.50;3.20;;;;;;;-3.64;100.00;150444.75;4977049;28;20531;-81
2024/01/16 07:39:47;;;;;;;3.63;2.87;;;;;;;-3.65;100.00;150443.47;4979768;28;20456;-82
2024/01/16 07:42:14;;;;;;;6.50;3.83;;;;;;;-3.65;100.00;150442.22;4979516;28;20461;-82
2024/01/16 07:44:41;;;;;;;5.20;3.50;;;;;;;-3.65;100.00;150443.47;4976100;28;20431;-83
2024/01/16 07:47:07;;;;;;;4.00;2.70;;;;;;;-3.63;100.00;150447.31;4977284;28;20868;-81
2024/01/16 07:49:34;;;;;;;4.97;3.20;;;;;;;-3.62;100.00;150451.13;4978191;28;20533;-81
2024/01/16 07:52:02;;;;;;;4.80;3.30;;;;;;;-3.58;100.00;150460.09;4976888;28;21600;-82
2024/01/16 07:54:28;;;;;;;4.43;3.13;;;;;;;-3.55;100.00;150467.78;4975618;28;20421;-83
2024/01/16 07:56:55;;;;;;;3.43;2.87;;;;;;;-3.56;100.00;150466.50;4979884;28;20483;-81
2024/01/16 07:59:22;;;;;;;3.90;3.20;;;;;;;-3.55;100.00;150467.78;4966139;28;20438;-83
2024/01/16 08:01:48;;;;;;;4.47;3.37;;;;;;;-3.53;100.00;150472.91;4978710;28;20489;-83
2024/01/16 08:04:15;;;;;;;5.47;2.90;;;;;;;-3.49;100.00;150483.09;4962202;28;20449;-82
2024/01/16 08:06:41;;;;;;;4.33;2.67;;;;;;;-3.45;100.00;150494.66;4964605;28;20475;-82
2024/01/16 08:09:11;;;;;;;5.10;3.07;;;;;;;-3.43;100.00;150498.47;4957201;28;20519;-82
2024/01/16 08:11:39;;;;;;;4.00;3.10;;;;;;;-3.41;100.00;150503.56;4975401;28;20436;-81
2024/01/16 08:14:05;;;;;;;4.53;3.40;;;;;;;-3.39;100.00;150508.72;4962972;28;20429;-82
2024/01/16 08:16:32;;;;;;;3.50;2.70;;;;;;;-3.36;100.00;150516.41;4976084;28;20928;-82
2024/01/16 08:18:59;;;;;;;4.10;3.27;;;;;;;-3.33;100.00;150524.03;4975399;28;20512;-82
2024/01/16 08:21:26;;;;;;;4.37;2.63;;;;;;;-3.30;100.00;150531.72;4975608;28;20556;-82
2024/01/16 08:23:52;;;;;;;3.40;2.80;;;;;;;-3.27;100.00;150540.69;4974656;28;20463;-82
2024/01/16 08:26:20;;;;;;;6.30;3.67;;;;;;;-3.27;100.00;150540.69;4959310;28;20483;-81
2024/01/16 08:28:47;;;;;;;3.83;2.60;;;;;;;-3.22;100.00;150552.19;4959483;28;20455;-81
2024/01/16 08:31:14;;;;;;;3.53;2.60;;;;;;;-3.17;100.00;150565.00;4961510;28;20459;-81
2024/01/16 08:33:40;;;;;;;4.67;2.50;;;;;;;-3.10;100.00;150582.94;4959709;28;20456;-81
2024/01/16 08:36:07;;;;;;;6.50;3.30;;;;;;;-3.08;100.00;150589.31;4943210;28;20441;-82
2024/01/16 08:38:34;;;;;;;5.80;3.70;;;;;;;-3.01;100.00;150605.94;4975587;28;20971;-82
2024/01/16 08:41:00;;;;;;;4.10;2.87;;;;;;;-2.99;100.00;150611.03;4958018;28;20433;-82
2024/01/16 08:43:28;;;;;;;3.70;2.50;;;;;;;-2.97;100.00;150616.19;4959563;28;20458;-82
2024/01/16 08:45:55;;;;;;;3.57;2.87;;;;;;;-2.92;100.00;150627.69;4973430;28;20462;-82
2024/01/16 08:48:22;;;;;;;3.80;2.90;;;;;;;-2.89;100.00;150635.38;4976468;28;20550;-81
2024/01/16 08:50:48;;;;;;;3.90;3.40;;;;;;;-2.88;100.00;150639.22;4960745;28;20817;-81
2024/01/16 08:53:15;;;;;;;4.60;2.80;;;;;;;-2.86;100.00;150644.31;4973956;28;20556;-81
2024/01/16 08:55:41;;;;;;;4.10;3.00;;;;;;;-2.84;100.00;150648.19;4957300;28;20462;-82
2024/01/16 08:58:08;;;;;;;4.40;3.43;;;;;;;-2.82;100.00;150653.28;4975152;28;20455;-81
2024/01/16 09:00:37;;;;;;;4.67;2.50;;;;;;;-2.81;100.00;150657.16;4974169;28;20477;-81
2024/01/16 09:03:04;;;;;;;4.00;3.03;;;;;;;-2.79;100.00;150662.25;4962144;28;20486;-82
2024/01/16 09:05:31;;;;;;;3.43;2.33;;;;;;;-2.76;100.00;150669.94;4958094;28;20796;-81
2024/01/16 09:07:58;;;;;;;3.10;2.40;;;;;;;-2.74;100.00;150673.78;4961905;28;20520;-82
2024/01/16 09:10:24;;;;;;;3.33;2.37;;;;;;;-2.74;100.00;150675.06;4978102;28;20485;-81
2024/01/16 09:12:51;;;;;;;4.50;2.80;;;;;;;-2.69;100.00;150687.84;4975693;28;21011;-81
2024/01/16 09:15:17;;;;;;;4.20;3.20;;;;;;;-2.70;100.00;150684.03;4977234;28;20454;-81
2024/01/16 09:17:45;;;;;;;3.73;2.87;;;;;;;-2.67;100.00;150692.97;4969677;28;20453;-81
2024/01/16 09:20:12;;;;;;;3.60;2.73;;;;;;;-2.64;100.00;150699.38;4976787;28;20456;-81
2024/01/16 09:22:38;;;;;;;4.43;3.10;;;;;;;-2.60;100.00;150710.91;4990578;28;20811;-81
2024/01/16 09:25:06;;;;;;;3.10;2.50;;;;;;;-2.59;100.00;150713.44;4982171;28;21012;-81
2024/01/16 09:27:32;;;;;;;3.00;2.70;;;;;;;-2.58;100.00;150716.03;4979039;28;20478;-82
2024/01/16 09:29:59;;;;;;;4.40;3.00;;;;;;;-2.56;100.00;150721.13;4963260;28;20461;-81
2024/01/16 09:32:26;;;;;;;3.80;3.20;;;;;;;-2.54;100.00;150726.25;4960000;28;20481;-81
2024/01/16 09:34:53;;;;;;;4.00;2.93;;;;;;;-2.50;100.00;150736.50;4963161;28;20515;-81
2024/01/16 09:40:26;;;;;;;4.67;3.10;;;;;;;-2.42;100.00;150754.41;3837456;23;20605;-81
2024/01/16 09:42:52;;;;;;;5.17;3.10;;;;;;;-2.35;100.00;150772.31;5012859;28;20440;-81
2024/01/16 09:45:21;;;;;;;4.87;3.23;;;;;;;-2.26;100.00;150796.69;5010600;28;20502;-81
2024/01/16 09:47:48;;;;;;;4.03;2.60;;;;;;;-2.15;100.00;150823.59;4995979;28;20566;-81
2024/01/16 09:50:17;;;;;;;3.30;2.27;;;;;;;-2.10;100.00;150836.38;4983818;28;20628;-81
2024/01/16 09:52:44;;;;;;;4.40;3.07;;;;;;;-2.05;100.00;150850.47;5013998;28;20467;-81
2024/01/16 09:55:11;;;;;;;4.40;3.00;;;;;;;-1.98;100.00;150867.09;4998191;28;20452;-81
2024/01/16 09:57:41;;;;;;;3.83;2.40;;;;;;;-1.91;100.00;150885.06;5017189;28;20462;-81
2024/01/16 10:00:40;;;;;;;5.70;3.20;;;;;;;-1.87;100.00;150896.59;5019593;28;20529;-82
2024/01/16 10:03:07;;;;;;;4.57;3.00;;;;;;;-1.82;100.00;150908.09;4998120;28;20449;-82
2024/01/16 10:05:35;;;;;;;5.90;2.80;;;;;;;-1.76;100.00;150923.47;5013993;28;20467;-81
2024/01/16 10:08:02;;;;;;;3.37;2.50;;;;;;;-1.71;100.00;150935.00;4997531;28;20477;-81
2024/01/16 10:10:29;;;;;;;4.57;3.10;;;;;;;-1.68;100.00;150943.97;5015321;28;20454;-81
2024/01/16 10:12:56;;;;;;;3.70;2.80;;;;;;;-1.64;100.00;150952.97;5014553;28;20479;-80
2024/01/16 10:15:23;;;;;;;4.23;3.20;;;;;;;-1.61;100.00;150961.91;5018570;28;20466;-80
2024/01/16 10:17:49;;;;;;;4.10;3.13;;;;;;;-1.54;100.00;150979.88;5013881;28;20448;-81
2024/01/16 10:20:17;;;;;;;4.87;2.70;;;;;;;-1.45;100.00;151001.63;5015201;28;20452;-80
2024/01/16 10:22:54;;;;;;;4.70;2.80;;;;;;;-1.37;100.00;151023.44;4998072;28;20451;-81
2024/01/16 10:25:22;;;;;;;3.93;3.00;;;;;;;-1.32;100.00;151036.22;5017076;28;20461;-81
2024/01/16 10:27:49;;;;;;;3.43;2.70;;;;;;;-1.21;100.00;151063.16;5017110;28;20491;-80
2024/01/16 10:30:22;;;;;;;4.20;2.97;;;;;;;-1.13;100.00;151082.38;5022873;28;20443;-80
2024/01/16 10:32:52;;;;;;;4.30;3.17;;;;;;;-1.07;100.00;151097.78;5019829;28;20476;-80
2024/01/16 10:35:20;;;;;;;3.30;2.33;;;;;;;-1.03;100.00;151108.06;5023439;28;20452;-79
2024/01/16 10:37:48;;;;;;;4.97;3.00;;;;;;;-1.00;100.00;151115.69;5004737;28;20475;-80
2024/01/16 10:40:19;;;;;;;3.83;2.67;;;;;;;-0.99;100.00;151118.28;5022833;28;20514;-81
2024/01/16 10:42:47;;;;;;;4.13;2.90;;;;;;;-0.97;100.00;151124.69;5021096;28;20448;-80
2024/01/16 10:45:19;;;;;;;3.30;2.30;;;;;;;-0.91;100.00;151138.78;5003518;28;20877;-81
2024/01/16 10:47:49;;;;;;;4.13;2.80;;;;;;;-0.87;100.00;151149.03;5005720;28;20461;-81
2024/01/16 10:50:18;;;;;;;4.20;2.97;;;;;;;-0.81;100.00;151165.72;5006717;28;20465;-80
2024/01/16 10:52:49;;;;;;;4.63;2.80;;;;;;;-0.75;100.00;151179.84;4988484;28;21000;-80
2024/01/16 10:55:22;;;;;;;5.90;3.53;;;;;;;-0.69;100.00;151196.47;4989842;28;20459;-80
2024/01/16 10:57:53;;;;;;;3.87;2.83;;;;;;;-0.63;100.00;151211.88;5006636;28;20498;-79
2024/01/16 11:00:23;;;;;;;5.03;3.23;;;;;;;-0.63;100.00;151211.88;5006566;28;21009;-79
2024/01/16 11:02:51;;;;;;;5.17;3.57;;;;;;;-0.66;100.00;151202.88;5021885;28;20447;-79
2024/01/16 11:05:18;;;;;;;4.30;3.00;;;;;;;-0.66;100.00;151202.88;5025744;28;20564;-78
2024/01/16 11:07:45;;;;;;;6.07;3.83;;;;;;;-0.72;100.00;151187.53;5005256;28;20483;-80
2024/01/16 11:10:12;;;;;;;5.33;3.33;;;;;;;-0.69;100.00;151195.25;5020720;28;20455;-79
2024/01/16 11:12:41;;;;;;;5.17;3.20;;;;;;;-0.66;100.00;151204.19;5019737;28;20451;-79
2024/01/16 11:15:09;;;;;;;3.47;3.00;;;;;;;-0.66;100.00;151204.19;5023999;28;20860;-79
2024/01/16 11:17:37;;;;;;;3.37;2.60;;;;;;;-0.69;100.00;151195.25;5023774;28;20474;-79
2024/01/16 11:20:09;;;;;;;4.80;3.27;;;;;;;-0.74;100.00;151182.38;5007477;28;20447;-79